Time;durP1;ratioP1;P1;durP2;ratioP2;P2;SDS_P1;SDS_P2;PMS_P1;PMS_P2;Temp;Humidity;BMP_temperature;BMP_pressure;BME280_temperature;BME280_humidity;BME280_pressure;Samples;Min_cycle;Max_cycle;Signal;HPM_P1;HPM_P2
2021/06/15 00:01:58;;;;;;;8.70;7.90;;;15.20;1.00;;;;;;4948973;28;20189;-58
2021/06/15 00:04:24;;;;;;;8.50;7.70;;;15.10;1.00;;;;;;4943485;29;20189;-58
2021/06/15 00:06:50;;;;;;;8.30;7.50;;;15.10;1.00;;;;;;4935938;29;20692;-58
2021/06/15 00:09:15;;;;;;;9.10;8.30;;;15.10;1.00;;;;;;4938419;29;20272;-55
2021/06/15 00:11:43;;;;;;;8.60;7.53;;;15.00;1.00;;;;;;4937016;29;20480;-58
2021/06/15 00:14:09;;;;;;;8.97;8.07;;;15.00;1.00;;;;;;4943058;29;20193;-57
2021/06/15 00:16:34;;;;;;;8.37;7.57;;;15.00;1.00;;;;;;4941525;29;20443;-58
2021/06/15 00:19:00;;;;;;;8.30;7.50;;;14.90;1.00;;;;;;4936929;29;20235;-59
2021/06/15 00:21:26;;;;;;;9.03;8.13;;;14.90;1.00;;;;;;4941255;29;20182;-56
2021/06/15 00:23:51;;;;;;;8.73;7.93;;;14.90;1.00;;;;;;4937367;28;20188;-58
2021/06/15 00:26:17;;;;;;;8.40;7.60;;;14.90;1.00;;;;;;4933413;29;20204;-57
2021/06/15 00:28:42;;;;;;;8.40;7.47;;;14.80;1.00;;;;;;4935572;29;20197;-58
2021/06/15 00:31:08;;;;;;;9.27;8.37;;;14.80;1.00;;;;;;4941748;28;20208;-58
2021/06/15 00:33:33;;;;;;;8.70;7.90;;;14.80;1.00;;;;;;4941722;29;20644;-57
2021/06/15 00:35:59;;;;;;;9.00;8.20;;;14.70;1.00;;;;;;4934679;29;20220;-57
2021/06/15 00:38:25;;;;;;;9.27;8.37;;;14.70;1.00;;;;;;4939911;29;20183;-57
2021/06/15 00:40:50;;;;;;;9.20;8.30;;;14.70;1.00;;;;;;4935239;29;20227;-57
2021/06/15 00:43:16;;;;;;;9.17;8.27;;;14.70;1.00;;;;;;4938667;29;20714;-56
2021/06/15 00:45:42;;;;;;;9.13;8.23;;;14.60;1.00;;;;;;4934611;28;20231;-57
2021/06/15 00:48:23;;;;;;;9.07;8.20;;;14.60;1.00;;;;;;4942975;29;20212;-57
2021/06/15 00:50:49;;;;;;;8.67;7.87;;;14.60;1.00;;;;;;4937465;29;20287;-56
2021/06/15 00:53:15;;;;;;;9.43;8.53;;;14.60;1.50;;;;;;4926222;29;20615;-54
2021/06/15 00:55:40;;;;;;;8.77;7.87;;;14.60;1.50;;;;;;4934857;29;20434;-57
2021/06/15 00:58:06;;;;;;;11.37;8.63;;;14.50;3.90;;;;;;4934615;28;20215;-58
2021/06/15 01:00:32;;;;;;;9.17;8.23;;;14.50;6.50;;;;;;4936641;29;20200;-57
2021/06/15 01:02:57;;;;;;;11.40;8.30;;;14.50;7.90;;;;;;4939151;28;20215;-56
2021/06/15 01:05:23;;;;;;;13.40;8.47;;;14.50;9.30;;;;;;4936489;28;20206;-57
2021/06/15 01:08:31;;;;;;;9.90;8.90;;;14.50;12.20;;;;;;4932461;29;20256;-58
2021/06/15 01:11:05;;;;;;;9.33;8.37;;;14.40;12.70;;;;;;4937702;29;20315;-58
2021/06/15 01:13:49;;;;;;;9.60;8.03;;;14.40;14.00;;;;;;4935683;29;20447;-59
2021/06/15 01:16:14;;;;;;;9.23;8.33;;;14.40;15.90;;;;;;4936653;29;20427;-58
2021/06/15 01:18:48;;;;;;;9.60;8.10;;;14.40;16.20;;;;;;4935118;28;20472;-56
2021/06/15 01:21:14;;;;;;;10.13;8.70;;;14.40;16.90;;;;;;4933095;29;20193;-60
2021/06/15 01:23:48;;;;;;;9.83;9.00;;;14.40;16.50;;;;;;4933605;29;20422;-58
2021/06/15 01:26:33;;;;;;;8.93;8.03;;;14.40;17.90;;;;;;4932762;29;20440;-57
2021/06/15 01:29:09;;;;;;;10.20;9.20;;;14.40;15.90;;;;;;4942531;28;20452;-57
2021/06/15 01:31:41;;;;;;;9.97;9.07;;;14.30;17.50;;;;;;4937296;29;20546;-57
2021/06/15 01:34:15;;;;;;;10.70;9.47;;;14.30;19.90;;;;;;4938616;29;20506;-57
2021/06/15 01:36:50;;;;;;;9.63;8.67;;;14.30;21.40;;;;;;4933325;29;20449;-56
2021/06/15 01:39:21;;;;;;;9.67;8.60;;;14.30;20.90;;;;;;4943146;29;20452;-57
2021/06/15 01:41:56;;;;;;;9.40;8.57;;;14.30;19.10;;;;;;4940860;29;20455;-58
2021/06/15 01:44:23;;;;;;;10.67;8.63;;;14.30;20.90;;;;;;4936103;29;20969;-58
2021/06/15 01:46:57;;;;;;;9.73;8.87;;;14.20;20.40;;;;;;4931888;29;20460;-58
2021/06/15 01:49:25;;;;;;;10.53;9.50;;;14.20;19.90;;;;;;4936180;29;20434;-56
2021/06/15 01:51:53;;;;;;;11.73;8.83;;;14.20;19.30;;;;;;4932434;29;21172;-58
2021/06/15 01:54:23;;;;;;;12.47;9.60;;;14.20;21.00;;;;;;4934252;29;20444;-54
2021/06/15 01:56:51;;;;;;;10.13;9.00;;;14.20;22.80;;;;;;4933599;29;20432;-57
2021/06/15 01:59:20;;;;;;;9.80;8.53;;;14.20;23.60;;;;;;4938081;29;21019;-58
2021/06/15 02:01:49;;;;;;;9.27;8.23;;;14.20;23.40;;;;;;4934581;28;20434;-55
2021/06/15 02:04:15;;;;;;;10.20;8.83;;;14.10;23.50;;;;;;4940413;29;20797;-58
2021/06/15 02:06:45;;;;;;;10.03;9.13;;;14.10;24.50;;;;;;4941485;29;20456;-58
2021/06/15 02:09:12;;;;;;;9.33;8.53;;;14.00;25.30;;;;;;4932321;29;20430;-57
2021/06/15 02:11:40;;;;;;;10.20;9.20;;;14.00;28.60;;;;;;4935086;28;20957;-56
2021/06/15 02:14:16;;;;;;;10.13;9.23;;;14.00;28.50;;;;;;4940092;29;20453;-57
2021/06/15 02:16:42;;;;;;;11.50;10.00;;;13.90;30.50;;;;;;4941482;28;20437;-57
2021/06/15 02:19:08;;;;;;;10.03;9.17;;;13.90;29.10;;;;;;4945695;28;20542;-57
2021/06/15 02:21:34;;;;;;;9.80;8.90;;;13.90;31.10;;;;;;4958263;28;20198;-58
2021/06/15 02:24:01;;;;;;;10.80;9.87;;;13.90;34.00;;;;;;4938778;29;20455;-57
2021/06/15 02:26:30;;;;;;;11.17;10.07;;;13.80;35.80;;;;;;4936001;29;20419;-59
2021/06/15 02:28:56;;;;;;;10.83;9.73;;;13.80;39.40;;;;;;4941681;29;21363;-56
2021/06/15 02:31:29;;;;;;;10.33;9.30;;;13.80;43.80;;;;;;4942770;29;20471;-58
2021/06/15 02:34:00;;;;;;;12.10;10.53;;;13.70;48.90;;;;;;4935516;29;20182;-58
2021/06/15 02:36:32;;;;;;;11.10;10.00;;;13.70;50.80;;;;;;4943871;28;20989;-58
2021/06/15 02:39:07;;;;;;;11.07;9.97;;;13.60;53.60;;;;;;4936241;29;20434;-58
2021/06/15 02:41:35;;;;;;;11.07;9.97;;;13.60;56.50;;;;;;4938267;28;20434;-58
2021/06/15 02:44:02;;;;;;;11.70;10.50;;;13.60;57.50;;;;;;4945763;29;20447;-59
2021/06/15 02:46:32;;;;;;;11.23;9.90;;;13.50;58.40;;;;;;4935592;29;20450;-57
2021/06/15 02:49:00;;;;;;;11.40;10.30;;;13.50;59.70;;;;;;4936413;29;20529;-58
2021/06/15 02:51:36;;;;;;;11.70;10.60;;;13.50;66.00;;;;;;4934281;29;20925;-58
2021/06/15 02:54:12;;;;;;;12.00;10.67;;;13.50;68.90;;;;;;4939142;29;20516;-58
2021/06/15 02:56:45;;;;;;;13.17;10.77;;;13.40;71.60;;;;;;4937281;29;20442;-57
2021/06/15 02:59:12;;;;;;;10.77;9.77;;;13.40;77.80;;;;;;4939049;29;20871;-58
2021/06/15 03:01:37;;;;;;;11.80;10.60;;;13.40;80.30;;;;;;4937739;28;20479;-58
2021/06/15 03:04:03;;;;;;;13.57;10.80;;;13.40;85.00;;;;;;4939095;29;20753;-58
2021/06/15 03:06:29;;;;;;;11.37;10.27;;;13.40;88.10;;;;;;4942021;29;20494;-58
2021/06/15 03:08:55;;;;;;;12.80;10.47;;;13.30;89.20;;;;;;4940475;29;20444;-57
2021/06/15 03:11:24;;;;;;;10.60;9.50;;;13.30;86.80;;;;;;4942864;29;20636;-59
2021/06/15 03:14:02;;;;;;;11.60;10.20;;;13.30;87.90;;;;;;4941785;29;20445;-58
2021/06/15 03:16:31;;;;;;;11.90;10.67;;;13.30;88.30;;;;;;4935562;29;21284;-57
2021/06/15 03:19:10;;;;;;;12.23;11.03;;;13.30;87.20;;;;;;4942970;28;20463;-58
2021/06/15 03:21:45;;;;;;;12.27;10.90;;;13.30;90.00;;;;;;4935853;29;20466;-58
2021/06/15 03:24:19;;;;;;;11.80;10.70;;;13.20;92.90;;;;;;4934435;29;20520;-58
2021/06/15 03:26:56;;;;;;;12.27;11.07;;;13.20;94.80;;;;;;4934972;29;20522;-58
2021/06/15 03:29:24;;;;;;;12.70;11.07;;;13.20;95.70;;;;;;4945247;29;20437;-56
2021/06/15 03:31:52;;;;;;;12.37;10.57;;;13.20;97.70;;;;;;4944594;28;20923;-58
2021/06/15 03:34:24;;;;;;;12.23;10.70;;;13.20;99.90;;;;;;4944592;29;20477;-59
2021/06/15 03:36:52;;;;;;;11.13;10.13;;;13.20;99.90;;;;;;4937074;28;20489;-58
2021/06/15 03:39:21;;;;;;;12.10;11.00;;;13.20;99.90;;;;;;4944548;28;21242;-57
2021/06/15 03:41:51;;;;;;;12.27;11.17;;;13.30;99.90;;;;;;4935523;29;20802;-58
2021/06/15 03:44:20;;;;;;;12.60;10.77;;;13.20;99.90;;;;;;4935327;29;21085;-59
2021/06/15 03:46:51;;;;;;;12.47;10.80;;;13.20;99.90;;;;;;4942508;28;20441;-57
2021/06/15 03:49:20;;;;;;;11.93;10.73;;;13.30;99.90;;;;;;4935883;29;20429;-58
2021/06/15 03:51:51;;;;;;;13.43;11.47;;;13.30;99.90;;;;;;4946225;28;20770;-56
2021/06/15 03:54:18;;;;;;;12.80;10.90;;;13.30;99.90;;;;;;4937186;29;20452;-57
2021/06/15 03:56:46;;;;;;;13.37;12.03;;;13.20;99.90;;;;;;4933869;28;20537;-54
2021/06/15 03:59:15;;;;;;;12.80;11.57;;;13.20;99.90;;;;;;4939568;29;20445;-58
2021/06/15 04:01:42;;;;;;;13.50;12.10;;;13.20;99.90;;;;;;4942122;29;20472;-57
2021/06/15 04:04:11;;;;;;;12.20;11.00;;;13.20;99.90;;;;;;4936745;29;20437;-58
2021/06/15 04:06:41;;;;;;;11.60;10.60;;;13.20;99.90;;;;;;4934538;29;21283;-57
2021/06/15 04:09:09;;;;;;;13.50;12.20;;;13.20;99.90;;;;;;4942240;29;20444;-57
2021/06/15 04:11:37;;;;;;;12.23;11.10;;;13.20;99.90;;;;;;4942126;29;20444;-58
2021/06/15 04:14:05;;;;;;;11.43;10.33;;;13.30;99.90;;;;;;4934368;29;20769;-58
2021/06/15 04:16:31;;;;;;;12.80;11.60;;;13.30;99.90;;;;;;4932398;29;20445;-59
2021/06/15 04:18:59;;;;;;;12.97;11.60;;;13.30;99.90;;;;;;4935611;29;20478;-58
2021/06/15 04:21:25;;;;;;;11.63;10.53;;;13.30;99.90;;;;;;4928836;29;20203;-56
2021/06/15 04:23:57;;;;;;;12.70;11.40;;;13.40;99.90;;;;;;4924982;28;20430;-57
2021/06/15 04:26:22;;;;;;;12.37;11.07;;;13.50;99.90;;;;;;4928549;29;20442;-58
2021/06/15 04:28:48;;;;;;;12.07;10.80;;;13.50;99.90;;;;;;4925903;29;21233;-55
2021/06/15 04:31:16;;;;;;;12.97;11.67;;;13.60;98.10;;;;;;4939142;29;20553;-56
2021/06/15 04:33:46;;;;;;;11.30;10.30;;;13.70;91.20;;;;;;4931459;29;20485;-56
2021/06/15 04:36:13;;;;;;;13.80;9.90;;;13.70;78.80;;;;;;4932207;28;20934;-55
2021/06/15 04:38:51;;;;;;;11.00;9.87;;;13.80;67.00;;;;;;4927331;28;20437;-57
2021/06/15 04:41:22;;;;;;;11.10;10.10;;;13.90;57.80;;;;;;4927362;29;20463;-55
2021/06/15 04:43:57;;;;;;;11.37;9.93;;;13.90;50.70;;;;;;4933487;29;20458;-59
2021/06/15 04:46:34;;;;;;;11.17;10.03;;;14.00;40.80;;;;;;4932532;29;20456;-58
2021/06/15 04:49:22;;;;;;;11.00;9.90;;;14.10;36.20;;;;;;4935457;29;20427;-58
2021/06/15 04:51:52;;;;;;;10.90;9.80;;;14.30;27.10;;;;;;4933401;29;20439;-58
2021/06/15 04:54:20;;;;;;;10.70;9.60;;;14.40;15.00;;;;;;4942804;28;20782;-58
2021/06/15 04:56:49;;;;;;;10.30;9.40;;;14.50;3.10;;;;;;4936642;29;20434;-55
2021/06/15 04:59:19;;;;;;;11.83;10.83;;;14.60;1.00;;;;;;4933149;29;20425;-57
2021/06/15 05:01:46;;;;;;;10.70;9.40;;;14.80;1.00;;;;;;4934584;29;20473;-55
2021/06/15 05:04:13;;;;;;;12.63;10.73;;;14.80;1.00;;;;;;4939427;29;20432;-58
2021/06/15 05:06:43;;;;;;;10.50;9.40;;;14.90;1.00;;;;;;4932620;29;20441;-58
2021/06/15 05:09:10;;;;;;;11.43;10.33;;;15.00;1.00;;;;;;4934703;29;20463;-56
2021/06/15 05:11:37;;;;;;;10.73;9.57;;;15.10;1.00;;;;;;4939266;29;20436;-57
2021/06/15 05:14:06;;;;;;;11.47;9.70;;;15.20;1.00;;;;;;4949616;28;20437;-58
2021/06/15 05:16:37;;;;;;;10.70;9.60;;;15.40;1.00;;;;;;4933116;29;20422;-57
2021/06/15 05:19:04;;;;;;;10.03;9.13;;;15.50;1.00;;;;;;4935722;29;20492;-57
2021/06/15 05:21:52;;;;;;;10.23;9.23;;;15.60;1.00;;;;;;4933689;29;20513;-56
2021/06/15 05:24:46;;;;;;;10.50;9.13;;;15.70;1.00;;;;;;4931446;29;20445;-56
2021/06/15 05:27:12;;;;;;;10.07;9.17;;;15.90;1.00;;;;;;4932781;29;20549;-52
2021/06/15 05:29:38;;;;;;;10.27;9.27;;;16.00;1.00;;;;;;4932248;28;20869;-57
2021/06/15 05:32:06;;;;;;;10.67;9.40;;;16.10;1.00;;;;;;4943051;29;20525;-58
2021/06/15 05:34:33;;;;;;;9.47;8.57;;;16.20;1.00;;;;;;4947702;29;20182;-55
2021/06/15 05:36:58;;;;;;;9.23;8.40;;;16.30;1.00;;;;;;4941105;28;20939;-56
2021/06/15 05:39:24;;;;;;;9.00;8.20;;;16.50;1.00;;;;;;4950254;29;20433;-57
2021/06/15 05:41:50;;;;;;;9.97;9.07;;;16.60;1.00;;;;;;4932597;29;20242;-57
2021/06/15 05:44:15;;;;;;;10.47;9.47;;;16.70;1.00;;;;;;4941023;29;20205;-57
2021/06/15 05:46:41;;;;;;;9.43;8.53;;;16.80;1.00;;;;;;4932679;29;20261;-55
2021/06/15 05:49:06;;;;;;;9.33;8.43;;;16.90;1.00;;;;;;4940941;29;20192;-57
2021/06/15 05:51:32;;;;;;;9.80;8.90;;;16.90;1.00;;;;;;4932386;29;20201;-54
2021/06/15 05:54:02;;;;;;;9.97;8.97;;;17.00;99.90;;;;;;4937123;29;20219;-55
2021/06/15 05:56:30;;;;;;;10.03;8.97;;;17.10;99.90;;;;;;4937103;29;20191;-56
2021/06/15 05:58:56;;;;;;;11.37;8.87;;;17.20;99.90;;;;;;4939544;29;20444;-57
2021/06/15 06:01:22;;;;;;;8.97;8.27;;;17.30;99.90;;;;;;4921504;29;20471;-57
2021/06/15 06:04:00;;;;;;;9.77;8.73;;;17.40;99.90;;;;;;4936908;29;20188;-57
2021/06/15 06:09:10;;;;;;;9.30;8.40;;;17.60;99.90;;;;;;4936917;29;20611;-56
2021/06/15 06:11:35;;;;;;;9.40;8.30;;;17.80;99.90;;;;;;4944394;29;20550;-59
2021/06/15 06:14:01;;;;;;;8.90;8.10;;;18.00;28.50;;;;;;4931527;29;20325;-59
2021/06/15 06:16:27;;;;;;;9.73;8.83;;;18.10;1.00;;;;;;4932008;29;20280;-58
2021/06/15 06:18:55;;;;;;;8.53;7.73;;;18.20;1.00;;;;;;4936203;29;20245;-59
2021/06/15 06:21:21;;;;;;;9.23;7.90;;;18.30;1.00;;;;;;4932682;29;20461;-54
2021/06/15 06:23:46;;;;;;;8.70;8.00;;;18.40;99.90;;;;;;4935280;29;20426;-57
2021/06/15 06:26:12;;;;;;;8.60;7.80;;;18.50;99.90;;;;;;4932569;29;20178;-56
2021/06/15 06:28:37;;;;;;;8.97;8.07;;;18.60;99.90;;;;;;4932735;29;20549;-57
2021/06/15 06:31:03;;;;;;;9.70;8.90;;;18.80;99.90;;;;;;4931583;29;20190;-56
2021/06/15 06:33:29;;;;;;;8.30;7.50;;;19.00;99.90;;;;;;4932978;29;20189;-58
2021/06/15 06:35:54;;;;;;;8.40;7.60;;;19.10;1.00;;;;;;4942143;29;20659;-58
2021/06/15 06:38:23;;;;;;;9.17;8.47;;;19.20;99.90;;;;;;4949991;28;20692;-58
2021/06/15 06:40:48;;;;;;;9.33;8.37;;;19.30;99.90;;;;;;4932364;29;20719;-57
2021/06/15 06:43:14;;;;;;;11.50;8.40;;;19.40;1.00;;;;;;4931574;29;20415;-58
2021/06/15 06:45:39;;;;;;;8.67;7.90;;;19.50;99.90;;;;;;4932053;29;20182;-57
2021/06/15 06:48:11;;;;;;;8.30;7.60;;;19.60;99.90;;;;;;4931903;29;20671;-58
2021/06/15 06:50:37;;;;;;;9.40;8.60;;;19.80;1.00;;;;;;4931668;29;20627;-59
2021/06/15 06:53:03;;;;;;;8.93;8.00;;;19.90;99.90;;;;;;4931572;29;20912;-56
2021/06/15 06:55:30;;;;;;;9.37;7.80;;;20.10;1.00;;;;;;4927307;29;20418;-58
2021/06/15 06:57:55;;;;;;;8.80;8.10;;;20.20;1.00;;;;;;4938753;29;20430;-55
2021/06/15 07:00:22;;;;;;;8.63;8.03;;;20.40;1.00;;;;;;4938649;29;21241;-57
2021/06/15 07:02:50;;;;;;;8.60;7.83;;;20.50;1.00;;;;;;4929612;29;20206;-57
2021/06/15 07:05:16;;;;;;;8.23;7.57;;;20.50;99.90;;;;;;4930234;29;20420;-57
2021/06/15 07:07:42;;;;;;;8.30;7.50;;;20.50;9.60;;;;;;4934479;29;20472;-57
2021/06/15 07:10:08;;;;;;;8.70;7.90;;;20.70;1.00;;;;;;4943306;29;20188;-56
2021/06/15 07:12:34;;;;;;;7.87;7.17;;;20.80;1.00;;;;;;4933958;29;20238;-55
2021/06/15 07:14:59;;;;;;;8.50;7.30;;;21.00;1.00;;;;;;4937483;29;20440;-57
2021/06/15 07:17:25;;;;;;;8.00;7.40;;;21.20;1.00;;;;;;4933591;29;20789;-56
2021/06/15 07:19:50;;;;;;;8.70;7.90;;;21.30;99.90;;;;;;4941631;29;20654;-57
2021/06/15 07:22:16;;;;;;;9.00;8.10;;;21.50;98.90;;;;;;4940273;29;20217;-56
2021/06/15 07:24:42;;;;;;;8.43;7.63;;;21.80;1.00;;;;;;4934919;29;20193;-57
2021/06/15 07:27:08;;;;;;;8.67;7.57;;;21.80;1.00;;;;;;4933664;29;20470;-54
2021/06/15 07:29:40;;;;;;;7.60;7.00;;;21.90;1.00;;;;;;4916805;29;20425;-56
2021/06/15 07:32:12;;;;;;;8.03;7.43;;;22.10;1.00;;;;;;4933566;29;20196;-55
2021/06/15 07:34:37;;;;;;;11.03;8.40;;;22.20;1.00;;;;;;4952771;29;20933;-54
2021/06/15 07:37:06;;;;;;;8.60;7.90;;;22.40;99.90;;;;;;4952617;28;20420;-54
2021/06/15 07:39:31;;;;;;;8.30;7.60;;;22.60;93.90;;;;;;4935084;29;20186;-55
2021/06/15 07:41:57;;;;;;;8.40;7.80;;;22.80;94.10;;;;;;4944173;28;20551;-56
2021/06/15 07:44:23;;;;;;;8.33;7.63;;;22.90;94.00;;;;;;4961863;28;20723;-58
2021/06/15 07:46:49;;;;;;;8.03;7.53;;;23.00;93.40;;;;;;4933935;29;20185;-54
2021/06/15 07:49:14;;;;;;;8.13;7.47;;;23.10;92.70;;;;;;4934122;29;20572;-54
2021/06/15 07:51:45;;;;;;;7.40;6.90;;;23.20;92.20;;;;;;4940836;29;20694;-54
2021/06/15 07:54:11;;;;;;;7.63;7.03;;;23.30;92.50;;;;;;4938832;29;20203;-57
2021/06/15 07:56:36;;;;;;;8.00;7.40;;;23.50;91.30;;;;;;4933942;29;20426;-55
2021/06/15 07:59:02;;;;;;;7.70;7.10;;;23.60;91.00;;;;;;4939825;29;20652;-52
2021/06/15 08:01:33;;;;;;;8.53;7.83;;;23.60;91.00;;;;;;4933584;29;20737;-54
2021/06/15 08:03:59;;;;;;;7.27;6.77;;;23.70;90.30;;;;;;4933501;29;20190;-55
2021/06/15 08:06:25;;;;;;;8.27;7.57;;;23.80;90.00;;;;;;4933731;29;20432;-54
2021/06/15 08:08:50;;;;;;;8.00;7.23;;;23.90;89.30;;;;;;4936587;29;20185;-54
2021/06/15 08:11:16;;;;;;;8.33;7.73;;;24.10;90.10;;;;;;4942109;29;20228;-56
2021/06/15 08:13:42;;;;;;;7.60;7.00;;;24.30;86.80;;;;;;4933459;29;20334;-56
2021/06/15 08:16:08;;;;;;;8.07;7.37;;;24.40;87.30;;;;;;4939265;29;20421;-57
2021/06/15 08:18:33;;;;;;;7.80;7.00;;;24.50;86.30;;;;;;4932734;29;20316;-56
2021/06/15 08:21:01;;;;;;;8.20;7.33;;;24.70;84.60;;;;;;4932574;29;20216;-53
2021/06/15 08:23:28;;;;;;;7.73;7.13;;;24.90;83.20;;;;;;4934122;29;20541;-53
2021/06/15 08:25:57;;;;;;;7.80;7.10;;;25.10;81.40;;;;;;4933433;29;20418;-54
2021/06/15 08:28:23;;;;;;;7.30;6.70;;;25.30;79.20;;;;;;4932837;29;20422;-53
2021/06/15 08:30:49;;;;;;;7.43;6.83;;;25.30;78.70;;;;;;4933184;29;20437;-54
2021/06/15 08:33:16;;;;;;;7.43;6.83;;;25.40;78.40;;;;;;4933395;29;20543;-54
2021/06/15 08:35:41;;;;;;;7.63;7.03;;;25.50;76.20;;;;;;4933189;29;20916;-56
2021/06/15 08:38:07;;;;;;;7.77;7.17;;;25.60;75.30;;;;;;4944339;28;20451;-56
2021/06/15 08:40:36;;;;;;;6.90;6.30;;;25.70;75.40;;;;;;4940485;28;20267;-55
2021/06/15 08:43:01;;;;;;;6.90;6.40;;;26.00;72.30;;;;;;4934501;29;20562;-53
2021/06/15 08:45:27;;;;;;;7.70;7.20;;;26.10;69.80;;;;;;4932433;29;20454;-55
2021/06/15 08:47:54;;;;;;;7.67;7.03;;;26.20;70.50;;;;;;4923401;29;20193;-56
2021/06/15 08:50:25;;;;;;;6.43;5.93;;;26.50;69.40;;;;;;4938072;29;20189;-57
2021/06/15 08:52:54;;;;;;;6.57;6.17;;;26.70;68.60;;;;;;4934490;29;20431;-55
2021/06/15 08:55:23;;;;;;;6.80;6.20;;;26.80;67.00;;;;;;4949796;29;20991;-54
2021/06/15 08:58:01;;;;;;;6.13;5.73;;;27.10;62.90;;;;;;4937850;29;20948;-54
2021/06/15 09:00:27;;;;;;;6.83;6.33;;;27.30;64.70;;;;;;4934304;29;20425;-55
2021/06/15 09:02:53;;;;;;;6.90;6.40;;;27.50;66.70;;;;;;4932911;29;20421;-55
2021/06/15 09:05:19;;;;;;;6.20;5.70;;;27.90;64.60;;;;;;4937413;28;20201;-55
2021/06/15 09:08:01;;;;;;;7.70;7.00;;;28.20;61.20;;;;;;4932737;29;20185;-56
2021/06/15 09:10:33;;;;;;;7.40;6.27;;;28.70;57.80;;;;;;4937525;29;20532;-53
2021/06/15 09:12:58;;;;;;;6.03;5.60;;;28.80;56.70;;;;;;4932209;29;20438;-54
2021/06/15 09:15:24;;;;;;;6.30;5.83;;;29.10;55.20;;;;;;4933837;29;20425;-53
2021/06/15 09:17:53;;;;;;;6.60;6.00;;;29.30;53.20;;;;;;4951279;29;20229;-54
2021/06/15 09:20:24;;;;;;;6.80;6.30;;;29.40;51.90;;;;;;4949771;29;20429;-55
2021/06/15 09:23:07;;;;;;;7.03;6.63;;;29.30;52.50;;;;;;4932068;29;20421;-55
2021/06/15 09:25:34;;;;;;;7.20;6.63;;;29.30;53.90;;;;;;4931545;29;20406;-54
2021/06/15 09:28:20;;;;;;;7.40;6.80;;;29.80;53.50;;;;;;4932567;29;20441;-54
2021/06/15 09:31:03;;;;;;;7.00;6.50;;;30.20;52.20;;;;;;4931999;29;20437;-56
2021/06/15 09:33:41;;;;;;;7.27;6.77;;;30.60;99.90;;;;;;4959438;28;20809;-60
2021/06/15 09:36:25;;;;;;;7.30;6.70;;;30.80;99.90;;;;;;4965955;28;20934;-56
2021/06/15 09:38:59;;;;;;;8.30;7.70;;;30.90;99.90;;;;;;4944365;28;20505;-56
2021/06/15 09:41:44;;;;;;;7.40;6.70;;;30.90;99.90;;;;;;4958875;28;20564;-56
2021/06/15 09:44:29;;;;;;;6.70;6.30;;;30.90;99.90;;;;;;4944125;28;20849;-57
2021/06/15 09:47:00;;;;;;;6.87;6.37;;;31.20;99.90;;;;;;4931059;29;20477;-56
2021/06/15 09:49:55;;;;;;;7.47;6.77;;;31.50;99.90;;;;;;4932182;29;20975;-56
2021/06/15 09:52:22;;;;;;;6.87;6.33;;;31.90;99.90;;;;;;4921239;29;20441;-57
2021/06/15 09:54:55;;;;;;;6.40;6.00;;;32.50;99.90;;;;;;4932246;28;20585;-58
2021/06/15 09:57:33;;;;;;;6.30;5.73;;;32.80;99.90;;;;;;4935482;29;20920;-55
2021/06/15 10:00:01;;;;;;;6.13;5.80;;;33.00;99.90;;;;;;4946795;28;20428;-56
2021/06/15 10:02:27;;;;;;;6.30;5.90;;;33.40;99.90;;;;;;4946691;29;20477;-58
2021/06/15 10:04:52;;;;;;;6.33;5.93;;;33.90;99.90;;;;;;4942681;29;20507;-58
2021/06/15 10:07:26;;;;;;;7.17;6.53;;;34.50;99.90;;;;;;4951000;29;20422;-58
2021/06/15 10:09:56;;;;;;;6.20;5.77;;;35.10;99.90;;;;;;4945498;28;20194;-58
2021/06/15 10:12:23;;;;;;;7.10;6.70;;;35.50;99.90;;;;;;4931964;29;20983;-57
2021/06/15 10:14:49;;;;;;;6.90;6.40;;;35.30;99.90;;;;;;4931486;29;20414;-56
2021/06/15 10:17:15;;;;;;;7.20;6.80;;;35.10;99.90;;;;;;4930768;29;20445;-56
2021/06/15 10:19:41;;;;;;;6.87;6.37;;;34.90;99.90;;;;;;4934030;29;20450;-56
2021/06/15 10:22:08;;;;;;;6.40;5.97;;;34.80;99.90;;;;;;4937929;28;21053;-55
2021/06/15 10:24:35;;;;;;;6.80;6.40;;;34.90;99.90;;;;;;4953166;28;20442;-57
2021/06/15 10:27:03;;;;;;;6.57;5.97;;;35.30;99.90;;;;;;4932741;28;20477;-56
2021/06/15 10:29:30;;;;;;;6.70;6.10;;;35.60;99.90;;;;;;4930674;29;20426;-58
2021/06/15 10:31:57;;;;;;;7.40;7.00;;;35.80;99.90;;;;;;4932917;29;20476;-55
2021/06/15 10:34:47;;;;;;;6.70;6.30;;;36.20;99.90;;;;;;4913990;29;20438;-57
2021/06/15 10:37:37;;;;;;;7.57;7.00;;;36.20;99.90;;;;;;4937790;28;20425;-57
2021/06/15 10:40:26;;;;;;;7.20;6.70;;;35.80;99.90;;;;;;4942393;28;20443;-55
2021/06/15 10:43:15;;;;;;;6.53;6.13;;;35.60;99.90;;;;;;4950926;29;20584;-55
2021/06/15 10:45:42;;;;;;;6.50;6.10;;;35.70;99.90;;;;;;4934795;29;20428;-56
2021/06/15 10:48:17;;;;;;;7.40;6.80;;;36.10;99.90;;;;;;4934729;29;20425;-56
2021/06/15 10:50:46;;;;;;;6.20;5.90;;;36.40;99.90;;;;;;4946492;29;20466;-56
2021/06/15 10:53:13;;;;;;;6.70;6.30;;;36.80;99.90;;;;;;4954283;29;20826;-53
2021/06/15 10:55:44;;;;;;;7.47;7.00;;;37.00;99.90;;;;;;4949905;29;20484;-57
2021/06/15 10:58:10;;;;;;;6.43;6.03;;;37.50;99.90;;;;;;4946912;29;20491;-57
2021/06/15 11:00:46;;;;;;;5.80;5.53;;;37.40;99.90;;;;;;4950026;29;20425;-57
2021/06/15 11:03:18;;;;;;;6.63;6.23;;;37.50;99.90;;;;;;4946339;29;20186;-59
2021/06/15 11:05:58;;;;;;;7.10;6.22;;;37.10;99.90;;;;;;4941522;29;20535;-57
2021/06/15 11:08:29;;;;;;;6.93;6.50;;;37.10;99.90;;;;;;4942526;29;20181;-57
2021/06/15 11:11:00;;;;;;;6.33;6.00;;;37.00;99.90;;;;;;4945581;29;20469;-57
2021/06/15 11:13:41;;;;;;;7.47;6.87;;;36.90;99.90;;;;;;4947921;29;20536;-57
2021/06/15 11:16:25;;;;;;;6.87;6.37;;;36.40;99.90;;;;;;4927889;29;20437;-58
2021/06/15 11:21:44;;;;;;;6.20;5.87;;;37.20;99.90;;;;;;4945240;29;20432;-57
2021/06/15 11:24:20;;;;;;;6.37;5.97;;;37.20;99.90;;;;;;4951474;28;20761;-57
2021/06/15 11:26:56;;;;;;;6.47;6.07;;;36.80;99.90;;;;;;4943384;28;20527;-57
2021/06/15 11:29:35;;;;;;;7.13;6.60;;;36.30;99.90;;;;;;4933930;29;20426;-57
2021/06/15 11:32:22;;;;;;;7.43;6.93;;;36.30;99.90;;;;;;4938109;29;20484;-58
2021/06/15 11:34:54;;;;;;;6.40;6.00;;;36.20;99.90;;;;;;4933682;29;20433;-58
2021/06/15 11:37:34;;;;;;;7.43;6.93;;;36.80;99.90;;;;;;4934626;29;20437;-56
2021/06/15 11:40:16;;;;;;;6.70;6.40;;;37.20;99.90;;;;;;4932305;29;20790;-56
2021/06/15 11:42:42;;;;;;;6.60;6.20;;;37.70;99.90;;;;;;4932353;29;20430;-57
2021/06/15 11:45:12;;;;;;;6.13;5.73;;;38.00;99.90;;;;;;4932997;29;20466;-54
2021/06/15 11:47:44;;;;;;;7.00;6.50;;;37.80;99.90;;;;;;4933064;29;20492;-56
2021/06/15 11:50:33;;;;;;;6.70;6.30;;;37.20;99.90;;;;;;4933497;29;20605;-56
2021/06/15 11:53:19;;;;;;;7.00;6.40;;;36.80;99.90;;;;;;4933030;29;20424;-56
2021/06/15 11:56:02;;;;;;;6.77;6.47;;;35.90;99.90;;;;;;4933238;29;20430;-56
2021/06/15 11:58:32;;;;;;;6.53;6.13;;;35.70;99.90;;;;;;4937757;29;20401;-56
2021/06/15 12:01:12;;;;;;;7.27;6.80;;;35.80;99.90;;;;;;4933223;29;20429;-55
2021/06/15 12:03:42;;;;;;;7.00;6.60;;;36.10;99.90;;;;;;4915910;29;20433;-56
2021/06/15 12:06:09;;;;;;;6.32;6.03;;;35.80;99.90;;;;;;4945832;29;20191;-56
2021/06/15 12:08:43;;;;;;;7.37;6.83;;;36.10;99.90;;;;;;4939752;29;20193;-57
2021/06/15 12:11:12;;;;;;;6.93;6.50;;;36.50;99.90;;;;;;4932775;29;20468;-57
2021/06/15 12:13:38;;;;;;;6.97;6.53;;;37.40;99.90;;;;;;4933275;29;20532;-56
2021/06/15 12:16:14;;;;;;;7.03;6.63;;;37.50;99.90;;;;;;4933140;29;20422;-57
2021/06/15 12:18:42;;;;;;;7.20;6.70;;;37.90;99.90;;;;;;4932726;29;20520;-56
2021/06/15 12:21:30;;;;;;;6.83;6.50;;;38.10;99.90;;;;;;4943141;29;20467;-57
2021/06/15 12:24:03;;;;;;;6.75;6.35;;;38.70;99.90;;;;;;4959733;28;20428;-57
2021/06/15 12:26:33;;;;;;;7.03;6.50;;;38.80;99.90;;;;;;4954582;28;20224;-56
2021/06/15 12:29:02;;;;;;;7.37;6.87;;;38.40;99.90;;;;;;4935235;29;20431;-58
2021/06/15 12:31:47;;;;;;;6.73;6.30;;;38.00;99.90;;;;;;4934972;29;20470;-58
2021/06/15 12:34:16;;;;;;;6.70;6.20;;;37.30;99.90;;;;;;4944517;29;20449;-58
2021/06/15 12:36:45;;;;;;;6.90;6.50;;;36.70;99.90;;;;;;4940610;28;20436;-57
2021/06/15 12:39:19;;;;;;;7.00;6.70;;;36.90;99.90;;;;;;4937558;28;20436;-57
2021/06/15 12:42:05;;;;;;;6.87;6.47;;;37.30;99.90;;;;;;4934085;29;20432;-54
2021/06/15 12:44:39;;;;;;;7.33;6.93;;;37.50;99.90;;;;;;4933918;29;20480;-58
2021/06/15 12:47:16;;;;;;;6.60;6.20;;;37.50;99.90;;;;;;4934030;29;20417;-59
2021/06/15 12:49:52;;;;;;;7.43;6.73;;;37.40;99.90;;;;;;4934135;29;20429;-57
2021/06/15 12:52:18;;;;;;;6.13;5.83;;;37.30;99.90;;;;;;4933587;29;20475;-58
2021/06/15 12:54:45;;;;;;;6.87;6.40;;;37.90;99.90;;;;;;4934813;29;20429;-57
2021/06/15 12:57:16;;;;;;;6.87;6.47;;;38.30;99.90;;;;;;4936661;29;20425;-58
2021/06/15 12:59:55;;;;;;;6.93;6.43;;;37.40;99.90;;;;;;4933676;29;20432;-56
2021/06/15 13:02:23;;;;;;;6.50;6.20;;;36.40;99.90;;;;;;4936237;29;20434;-57
2021/06/15 13:04:57;;;;;;;6.95;6.40;;;35.80;99.90;;;;;;4938477;29;20441;-56